sensor_id;sensor_type;location;lat;lon;timestamp;pressure;altitude;pressure_sealevel;temperature;humidity
85782;BME280;76219;50.128;8.728;2024-03-17T00:01:10;101383.94;;;6.84;63.29
85782;BME280;76219;50.128;8.728;2024-03-17T00:03:38;101383.28;;;6.78;64.78
85782;BME280;76219;50.128;8.728;2024-03-17T00:06:06;101386.13;;;6.73;64.12
85782;BME280;76219;50.128;8.728;2024-03-17T00:08:34;101379.13;;;6.72;65.35
85782;BME280;76219;50.128;8.728;2024-03-17T00:11:02;101377.81;;;6.59;65.77
85782;BME280;76219;50.128;8.728;2024-03-17T00:13:31;101388.81;;;6.47;65.22
85782;BME280;76219;50.128;8.728;2024-03-17T00:15:57;101374.81;;;6.44;65.63
85782;BME280;76219;50.128;8.728;2024-03-17T00:18:32;101374.50;;;6.54;65.78
85782;BME280;76219;50.128;8.728;2024-03-17T00:20:59;101379.53;;;6.60;64.77
85782;BME280;76219;50.128;8.728;2024-03-17T00:23:27;101369.16;;;6.55;64.60
85782;BME280;76219;50.128;8.728;2024-03-17T00:25:56;101370.47;;;6.43;65.00
85782;BME280;76219;50.128;8.728;2024-03-17T00:28:23;101374.09;;;6.41;65.38
85782;BME280;76219;50.128;8.728;2024-03-17T00:30:53;101371.03;;;6.28;65.31
85782;BME280;76219;50.128;8.728;2024-03-17T00:33:19;101367.53;;;6.28;65.61
85782;BME280;76219;50.128;8.728;2024-03-17T00:35:46;101377.22;;;6.27;66.53
85782;BME280;76219;50.128;8.728;2024-03-17T00:38:15;101379.19;;;6.21;67.79
85782;BME280;76219;50.128;8.728;2024-03-17T00:40:42;101381.41;;;6.08;67.37
85782;BME280;76219;50.128;8.728;2024-03-17T00:43:11;101384.09;;;6.06;66.80
85782;BME280;76219;50.128;8.728;2024-03-17T00:45:40;101375.34;;;6.06;65.70
85782;BME280;76219;50.128;8.728;2024-03-17T00:48:09;101370.66;;;6.14;66.50
85782;BME280;76219;50.128;8.728;2024-03-17T00:50:36;101371.34;;;6.19;67.06
85782;BME280;76219;50.128;8.728;2024-03-17T00:53:03;101362.78;;;6.12;66.56
85782;BME280;76219;50.128;8.728;2024-03-17T00:55:30;101362.31;;;6.26;65.86
85782;BME280;76219;50.128;8.728;2024-03-17T00:57:58;101356.94;;;6.04;66.80
85782;BME280;76219;50.128;8.728;2024-03-17T01:00:25;101353.75;;;5.95;67.48
85782;BME280;76219;50.128;8.728;2024-03-17T01:02:53;101351.63;;;5.78;66.86
85782;BME280;76219;50.128;8.728;2024-03-17T01:05:22;101348.53;;;5.65;67.67
85782;BME280;76219;50.128;8.728;2024-03-17T01:07:51;101353.97;;;5.61;68.18
85782;BME280;76219;50.128;8.728;2024-03-17T01:10:18;101338.66;;;5.72;67.90
85782;BME280;76219;50.128;8.728;2024-03-17T01:12:46;101337.81;;;5.71;68.26
85782;BME280;76219;50.128;8.728;2024-03-17T01:15:12;101329.97;;;5.70;68.57
85782;BME280;76219;50.128;8.728;2024-03-17T01:17:40;101337.91;;;5.42;69.43
85782;BME280;76219;50.128;8.728;2024-03-17T01:20:08;101341.84;;;5.55;68.54
85782;BME280;76219;50.128;8.728;2024-03-17T01:22:40;101334.63;;;5.62;69.80
85782;BME280;76219;50.128;8.728;2024-03-17T01:25:08;101323.16;;;5.63;70.95
85782;BME280;76219;50.128;8.728;2024-03-17T01:27:35;101322.59;;;5.53;70.84
85782;BME280;76219;50.128;8.728;2024-03-17T01:30:04;101324.66;;;5.45;71.45
85782;BME280;76219;50.128;8.728;2024-03-17T01:32:31;101319.50;;;5.40;70.87
85782;BME280;76219;50.128;8.728;2024-03-17T01:34:58;101319.50;;;5.40;71.78
85782;BME280;76219;50.128;8.728;2024-03-17T01:37:27;101328.31;;;5.39;72.00
85782;BME280;76219;50.128;8.728;2024-03-17T01:39:54;101316.41;;;5.27;71.13
85782;BME280;76219;50.128;8.728;2024-03-17T01:42:22;101323.41;;;5.28;70.74
85782;BME280;76219;50.128;8.728;2024-03-17T01:44:49;101321.06;;;5.19;71.46
85782;BME280;76219;50.128;8.728;2024-03-17T01:47:18;101312.63;;;5.10;71.47
85782;BME280;76219;50.128;8.728;2024-03-17T01:49:45;101314.34;;;5.09;72.36
85782;BME280;76219;50.128;8.728;2024-03-17T01:52:14;101315.81;;;4.91;72.61
85782;BME280;76219;50.128;8.728;2024-03-17T01:54:41;101313.13;;;4.93;71.87
85782;BME280;76219;50.128;8.728;2024-03-17T01:57:10;101310.34;;;4.97;71.11
85782;BME280;76219;50.128;8.728;2024-03-17T01:59:37;101303.94;;;5.06;70.34
85782;BME280;76219;50.128;8.728;2024-03-17T02:02:05;101305.22;;;4.93;71.23
85782;BME280;76219;50.128;8.728;2024-03-17T02:04:32;101303.44;;;4.93;70.76
85782;BME280;76219;50.128;8.728;2024-03-17T02:07:02;101293.31;;;4.81;71.37
85782;BME280;76219;50.128;8.728;2024-03-17T02:09:29;101295.88;;;4.83;72.68
85782;BME280;76219;50.128;8.728;2024-03-17T02:11:56;101288.50;;;4.66;72.02
85782;BME280;76219;50.128;8.728;2024-03-17T02:14:25;101293.13;;;4.58;73.44
85782;BME280;76219;50.128;8.728;2024-03-17T02:16:53;101290.41;;;4.61;73.78
85782;BME280;76219;50.128;8.728;2024-03-17T02:19:19;101296.84;;;4.51;74.03
85782;BME280;76219;50.128;8.728;2024-03-17T02:21:49;101304.13;;;4.43;74.40
85782;BME280;76219;50.128;8.728;2024-03-17T02:24:17;101294.50;;;4.42;74.07
85782;BME280;76219;50.128;8.728;2024-03-17T02:26:45;101304.59;;;4.26;74.36
85782;BME280;76219;50.128;8.728;2024-03-17T02:29:13;101305.38;;;4.29;74.42
85782;BME280;76219;50.128;8.728;2024-03-17T02:31:41;101304.59;;;4.26;74.50
85782;BME280;76219;50.128;8.728;2024-03-17T02:34:09;101293.91;;;4.32;74.48
85782;BME280;76219;50.128;8.728;2024-03-17T02:36:36;101296.63;;;4.29;75.00
85782;BME280;76219;50.128;8.728;2024-03-17T02:39:03;101289.75;;;3.92;76.06
85782;BME280;76219;50.128;8.728;2024-03-17T02:41:51;101297.84;;;4.17;75.37
85782;BME280;76219;50.128;8.728;2024-03-17T02:44:24;101298.03;;;4.09;75.41
85782;BME280;76219;50.128;8.728;2024-03-17T02:46:51;101279.75;;;4.05;75.82
85782;BME280;76219;50.128;8.728;2024-03-17T02:49:19;101280.78;;;3.99;76.14
85782;BME280;76219;50.128;8.728;2024-03-17T02:51:47;101284.44;;;3.95;76.09
85782;BME280;76219;50.128;8.728;2024-03-17T02:54:15;101281.19;;;3.86;76.12
85782;BME280;76219;50.128;8.728;2024-03-17T02:56:44;101283.22;;;3.74;76.58
85782;BME280;76219;50.128;8.728;2024-03-17T02:59:14;101283.34;;;3.70;76.83
85782;BME280;76219;50.128;8.728;2024-03-17T03:01:41;101284.19;;;3.72;76.78
85782;BME280;76219;50.128;8.728;2024-03-17T03:04:09;101282.31;;;3.75;76.96
85782;BME280;76219;50.128;8.728;2024-03-17T03:06:37;101273.69;;;3.70;76.50
85782;BME280;76219;50.128;8.728;2024-03-17T03:09:11;101279.59;;;3.78;75.79
85782;BME280;76219;50.128;8.728;2024-03-17T03:11:43;101273.25;;;3.87;75.89
85782;BME280;76219;50.128;8.728;2024-03-17T03:14:13;101283.03;;;3.82;76.02
85782;BME280;76219;50.128;8.728;2024-03-17T03:16:41;101278.16;;;3.67;77.00
85782;BME280;76219;50.128;8.728;2024-03-17T03:19:10;101276.31;;;3.70;77.55
85782;BME280;76219;50.128;8.728;2024-03-17T03:21:38;101283.19;;;3.76;76.54
85782;BME280;76219;50.128;8.728;2024-03-17T03:24:07;101278.13;;;3.68;76.98
85782;BME280;76219;50.128;8.728;2024-03-17T03:26:34;101285.81;;;3.42;77.20
85782;BME280;76219;50.128;8.728;2024-03-17T03:29:02;101293.88;;;3.34;77.29
85782;BME280;76219;50.128;8.728;2024-03-17T03:31:32;101288.44;;;3.42;76.96
85782;BME280;76219;50.128;8.728;2024-03-17T03:33:59;101299.41;;;3.59;76.35
85782;BME280;76219;50.128;8.728;2024-03-17T03:36:29;101292.75;;;3.44;76.61
85782;BME280;76219;50.128;8.728;2024-03-17T03:38:57;101295.28;;;3.49;77.13
85782;BME280;76219;50.128;8.728;2024-03-17T03:41:25;101296.16;;;3.49;77.24
85782;BME280;76219;50.128;8.728;2024-03-17T03:43:52;101296.38;;;3.40;76.89
85782;BME280;76219;50.128;8.728;2024-03-17T03:46:21;101305.19;;;3.38;77.64
85782;BME280;76219;50.128;8.728;2024-03-17T03:48:49;101303.63;;;3.31;78.38
85782;BME280;76219;50.128;8.728;2024-03-17T03:51:18;101295.56;;;3.38;77.40
85782;BME280;76219;50.128;8.728;2024-03-17T03:53:45;101305.97;;;3.41;77.17
85782;BME280;76219;50.128;8.728;2024-03-17T03:56:12;101305.25;;;3.35;77.91
85782;BME280;76219;50.128;8.728;2024-03-17T03:58:42;101305.25;;;3.35;77.53
85782;BME280;76219;50.128;8.728;2024-03-17T04:01:12;101305.38;;;3.30;77.76
85782;BME280;76219;50.128;8.728;2024-03-17T04:03:42;101300.34;;;3.21;77.85
85782;BME280;76219;50.128;8.728;2024-03-17T04:06:13;101302.88;;;3.24;78.36
85782;BME280;76219;50.128;8.728;2024-03-17T04:08:42;101308.19;;;3.22;78.04
85782;BME280;76219;50.128;8.728;2024-03-17T04:11:10;101310.16;;;3.14;78.35
85782;BME280;76219;50.128;8.728;2024-03-17T04:13:39;101312.44;;;3.28;78.30
85782;BME280;76219;50.128;8.728;2024-03-17T04:16:09;101311.03;;;3.13;78.39
85782;BME280;76219;50.128;8.728;2024-03-17T04:18:37;101314.66;;;3.08;79.09
85782;BME280;76219;50.128;8.728;2024-03-17T04:21:07;101315.69;;;3.02;79.12
85782;BME280;76219;50.128;8.728;2024-03-17T04:23:35;101322.69;;;3.02;78.47
85782;BME280;76219;50.128;8.728;2024-03-17T04:26:04;101316.47;;;3.06;78.05
85782;BME280;76219;50.128;8.728;2024-03-17T04:28:35;101322.00;;;2.93;78.44
85782;BME280;76219;50.128;8.728;2024-03-17T04:31:03;101318.19;;;3.07;78.05
85782;BME280;76219;50.128;8.728;2024-03-17T04:33:32;101313.91;;;3.03;78.00
85782;BME280;76219;50.128;8.728;2024-03-17T04:36:00;101323.84;;;2.90;79.00
85782;BME280;76219;50.128;8.728;2024-03-17T04:38:28;101335.81;;;3.00;78.69
85782;BME280;76219;50.128;8.728;2024-03-17T04:40:57;101323.50;;;3.04;78.65
85782;BME280;76219;50.128;8.728;2024-03-17T04:43:31;101321.84;;;3.01;78.54
85782;BME280;76219;50.128;8.728;2024-03-17T04:46:01;101325.31;;;3.00;79.14
85782;BME280;76219;50.128;8.728;2024-03-17T04:48:31;101324.47;;;3.01;78.34
85782;BME280;76219;50.128;8.728;2024-03-17T04:50:58;101328.88;;;2.98;78.60
85782;BME280;76219;50.128;8.728;2024-03-17T04:53:27;101317.66;;;2.92;78.81
85782;BME280;76219;50.128;8.728;2024-03-17T04:56:01;101321.75;;;3.04;78.39
85782;BME280;76219;50.128;8.728;2024-03-17T04:58:31;101326.34;;;2.95;79.31
85782;BME280;76219;50.128;8.728;2024-03-17T05:01:04;101322.56;;;3.06;78.75
85782;BME280;76219;50.128;8.728;2024-03-17T05:03:32;101323.75;;;2.93;79.05
85782;BME280;76219;50.128;8.728;2024-03-17T05:06:03;101331.72;;;2.88;78.87
85782;BME280;76219;50.128;8.728;2024-03-17T05:08:33;101335.25;;;2.87;78.94
85782;BME280;76219;50.128;8.728;2024-03-17T05:11:03;101326.47;;;2.88;79.33
85782;BME280;76219;50.128;8.728;2024-03-17T05:13:32;101317.84;;;2.83;79.29
85782;BME280;76219;50.128;8.728;2024-03-17T05:16:02;101326.03;;;2.70;79.38
85782;BME280;76219;50.128;8.728;2024-03-17T05:18:36;101320.94;;;2.62;79.64
85782;BME280;76219;50.128;8.728;2024-03-17T05:21:06;101326.84;;;2.72;79.93
85782;BME280;76219;50.128;8.728;2024-03-17T05:23:37;101321.69;;;2.69;79.24
85782;BME280;76219;50.128;8.728;2024-03-17T05:26:07;101325.00;;;2.75;79.62
85782;BME280;76219;50.128;8.728;2024-03-17T05:28:36;101318.94;;;2.73;79.33
85782;BME280;76219;50.128;8.728;2024-03-17T05:31:04;101321.50;;;2.76;79.83
85782;BME280;76219;50.128;8.728;2024-03-17T05:33:33;101321.34;;;2.84;78.90
85782;BME280;76219;50.128;8.728;2024-03-17T05:36:01;101325.72;;;2.83;79.55
85782;BME280;76219;50.128;8.728;2024-03-17T05:38:30;101322.81;;;2.96;79.00
85782;BME280;76219;50.128;8.728;2024-03-17T05:41:02;101320.06;;;3.02;78.25
85782;BME280;76219;50.128;8.728;2024-03-17T05:43:34;101314.97;;;2.94;78.81
85782;BME280;76219;50.128;8.728;2024-03-17T05:46:04;101313.00;;;3.04;78.58
85782;BME280;76219;50.128;8.728;2024-03-17T05:48:36;101312.84;;;3.10;78.61
85782;BME280;76219;50.128;8.728;2024-03-17T05:51:06;101321.44;;;3.18;78.50
85782;BME280;76219;50.128;8.728;2024-03-17T05:53:38;101325.00;;;3.15;78.54
85782;BME280;76219;50.128;8.728;2024-03-17T05:56:07;101324.25;;;3.09;78.55
85782;BME280;76219;50.128;8.728;2024-03-17T05:58:38;101324.16;;;3.13;78.39
85782;BME280;76219;50.128;8.728;2024-03-17T06:01:06;101326.63;;;3.19;77.81
85782;BME280;76219;50.128;8.728;2024-03-17T06:03:34;101327.16;;;3.34;77.65
85782;BME280;76219;50.128;8.728;2024-03-17T06:06:03;101328.00;;;3.36;77.13
85782;BME280;76219;50.128;8.728;2024-03-17T06:08:30;101327.88;;;3.40;77.02
85782;BME280;76219;50.128;8.728;2024-03-17T06:11:00;101327.84;;;3.42;77.85
85782;BME280;76219;50.128;8.728;2024-03-17T06:13:27;101318.66;;;3.60;76.96
85782;BME280;76219;50.128;8.728;2024-03-17T06:15:57;101325.38;;;3.70;77.41
85782;BME280;76219;50.128;8.728;2024-03-17T06:18:27;101325.22;;;3.76;76.40
85782;BME280;76219;50.128;8.728;2024-03-17T06:20:57;101321.03;;;4.01;75.53
85782;BME280;76219;50.128;8.728;2024-03-17T06:23:27;101319.41;;;3.97;75.02
85782;BME280;76219;50.128;8.728;2024-03-17T06:25:57;101321.47;;;4.19;74.42
85782;BME280;76219;50.128;8.728;2024-03-17T06:28:25;101318.09;;;4.14;75.88
85782;BME280;76219;50.128;8.728;2024-03-17T06:30:58;101314.34;;;4.22;73.95
85782;BME280;76219;50.128;8.728;2024-03-17T06:33:28;101315.00;;;4.30;73.35
85782;BME280;76219;50.128;8.728;2024-03-17T06:35:58;101311.06;;;4.45;72.06
85782;BME280;76219;50.128;8.728;2024-03-17T06:38:27;101308.97;;;4.56;71.34
85782;BME280;76219;50.128;8.728;2024-03-17T06:40:55;101308.94;;;4.87;70.34
85782;BME280;76219;50.128;8.728;2024-03-17T06:43:23;101310.16;;;4.76;71.06
85782;BME280;76219;50.128;8.728;2024-03-17T06:45:55;101314.84;;;5.22;68.49
85782;BME280;76219;50.128;8.728;2024-03-17T06:48:27;101303.16;;;5.82;66.65
85782;BME280;76219;50.128;8.728;2024-03-17T06:50:56;101300.19;;;6.18;65.00
85782;BME280;76219;50.128;8.728;2024-03-17T06:53:27;101302.44;;;5.52;66.60
85782;BME280;76219;50.128;8.728;2024-03-17T06:55:55;101305.81;;;4.75;69.13
85782;BME280;76219;50.128;8.728;2024-03-17T06:58:23;101309.97;;;5.10;68.84
85782;BME280;76219;50.128;8.728;2024-03-17T07:00:54;101312.44;;;5.14;68.49
85782;BME280;76219;50.128;8.728;2024-03-17T07:03:24;101309.34;;;5.56;67.46
85782;BME280;76219;50.128;8.728;2024-03-17T07:05:56;101298.53;;;5.89;66.82
85782;BME280;76219;50.128;8.728;2024-03-17T07:08:25;101298.00;;;6.52;64.14
85782;BME280;76219;50.128;8.728;2024-03-17T07:10:56;101292.66;;;6.99;62.27
85782;BME280;76219;50.128;8.728;2024-03-17T07:13:35;101296.22;;;7.42;61.24
85782;BME280;76219;50.128;8.728;2024-03-17T07:16:06;101291.34;;;8.33;58.28
85782;BME280;76219;50.128;8.728;2024-03-17T07:18:35;101290.34;;;8.16;57.77
85782;BME280;76219;50.128;8.728;2024-03-17T07:21:05;101287.50;;;10.52;52.36
85782;BME280;76219;50.128;8.728;2024-03-17T07:23:33;101294.97;;;9.07;54.33
85782;BME280;76219;50.128;8.728;2024-03-17T07:26:04;101295.28;;;8.82;55.41
85782;BME280;76219;50.128;8.728;2024-03-17T07:28:35;101294.44;;;8.82;55.53
85782;BME280;76219;50.128;8.728;2024-03-17T07:31:08;101297.63;;;9.43;54.46
85782;BME280;76219;50.128;8.728;2024-03-17T07:33:37;101292.88;;;9.50;54.66
85782;BME280;76219;50.128;8.728;2024-03-17T07:36:06;101283.84;;;12.36;47.36
85782;BME280;76219;50.128;8.728;2024-03-17T07:38:36;101282.41;;;11.12;48.78
85782;BME280;76219;50.128;8.728;2024-03-17T07:41:05;101279.94;;;12.70;45.15
85782;BME280;76219;50.128;8.728;2024-03-17T07:43:35;101273.81;;;10.60;50.02
85782;BME280;76219;50.128;8.728;2024-03-17T07:46:07;101271.50;;;10.20;51.99
85782;BME280;76219;50.128;8.728;2024-03-17T07:48:36;101271.94;;;10.46;51.67
85782;BME280;76219;50.128;8.728;2024-03-17T07:51:08;101266.28;;;11.45;47.94
85782;BME280;76219;50.128;8.728;2024-03-17T07:53:38;101273.00;;;11.66;47.85
85782;BME280;76219;50.128;8.728;2024-03-17T07:56:08;101272.88;;;11.08;48.72
85782;BME280;76219;50.128;8.728;2024-03-17T07:58:40;101268.31;;;11.26;47.99
85782;BME280;76219;50.128;8.728;2024-03-17T08:01:10;101276.13;;;11.13;47.69
85782;BME280;76219;50.128;8.728;2024-03-17T08:03:39;101277.69;;;10.70;49.85
85782;BME280;76219;50.128;8.728;2024-03-17T08:06:10;101266.09;;;10.87;48.56
85782;BME280;76219;50.128;8.728;2024-03-17T08:08:37;101265.75;;;13.78;42.57
85782;BME280;76219;50.128;8.728;2024-03-17T08:11:05;101265.66;;;12.57;44.12
85782;BME280;76219;50.128;8.728;2024-03-17T08:13:33;101268.81;;;13.71;41.96
85782;BME280;76219;50.128;8.728;2024-03-17T08:16:02;101270.00;;;13.28;43.20
85782;BME280;76219;50.128;8.728;2024-03-17T08:18:33;101255.72;;;12.73;44.43
85782;BME280;76219;50.128;8.728;2024-03-17T08:21:02;101258.03;;;13.73;42.69
85782;BME280;76219;50.128;8.728;2024-03-17T08:23:34;101269.34;;;11.53;47.47
85782;BME280;76219;50.128;8.728;2024-03-17T08:26:08;101271.50;;;13.18;43.53
85782;BME280;76219;50.128;8.728;2024-03-17T08:28:35;101273.13;;;13.34;42.94
85782;BME280;76219;50.128;8.728;2024-03-17T08:31:03;101265.16;;;12.79;42.92
85782;BME280;76219;50.128;8.728;2024-03-17T08:33:31;101278.13;;;12.85;43.54
85782;BME280;76219;50.128;8.728;2024-03-17T08:36:01;101278.25;;;12.55;44.30
85782;BME280;76219;50.128;8.728;2024-03-17T08:38:30;101285.78;;;13.58;42.63
85782;BME280;76219;50.128;8.728;2024-03-17T08:41:04;101277.38;;;12.96;43.57
85782;BME280;76219;50.128;8.728;2024-03-17T08:43:32;101277.63;;;12.78;44.36
85782;BME280;76219;50.128;8.728;2024-03-17T08:46:01;101274.03;;;12.65;44.59
85782;BME280;76219;50.128;8.728;2024-03-17T08:48:30;101274.88;;;16.96;36.07
85782;BME280;76219;50.128;8.728;2024-03-17T08:50:59;101267.69;;;12.95;43.07
85782;BME280;76219;50.128;8.728;2024-03-17T08:53:27;101270.47;;;14.50;41.27
85782;BME280;76219;50.128;8.728;2024-03-17T08:55:57;101263.56;;;17.56;34.83
85782;BME280;76219;50.128;8.728;2024-03-17T08:58:27;101248.91;;;19.13;32.51
85782;BME280;76219;50.128;8.728;2024-03-17T09:00:55;101261.34;;;16.63;37.07
85782;BME280;76219;50.128;8.728;2024-03-17T09:03:27;101249.66;;;18.14;33.57
85782;BME280;76219;50.128;8.728;2024-03-17T09:05:54;101249.06;;;14.87;39.04
85782;BME280;76219;50.128;8.728;2024-03-17T09:08:23;101246.44;;;14.74;38.42
85782;BME280;76219;50.128;8.728;2024-03-17T09:10:53;101249.63;;;14.79;38.33
85782;BME280;76219;50.128;8.728;2024-03-17T09:13:21;101251.09;;;12.77;43.30
85782;BME280;76219;50.128;8.728;2024-03-17T09:15:54;101236.78;;;13.97;41.36
85782;BME280;76219;50.128;8.728;2024-03-17T09:18:22;101246.09;;;13.79;42.09
85782;BME280;76219;50.128;8.728;2024-03-17T09:21:02;101242.09;;;14.22;40.42
85782;BME280;76219;50.128;8.728;2024-03-17T09:23:32;101255.66;;;13.43;43.00
85782;BME280;76219;50.128;8.728;2024-03-17T09:26:03;101249.41;;;13.42;41.88
85782;BME280;76219;50.128;8.728;2024-03-17T09:28:32;101257.09;;;13.34;43.08
85782;BME280;76219;50.128;8.728;2024-03-17T09:31:02;101242.47;;;13.40;42.25
85782;BME280;76219;50.128;8.728;2024-03-17T09:33:34;101249.16;;;13.60;42.40
85782;BME280;76219;50.128;8.728;2024-03-17T09:36:03;101247.56;;;14.34;41.24
85782;BME280;76219;50.128;8.728;2024-03-17T09:38:32;101244.47;;;12.82;43.75
85782;BME280;76219;50.128;8.728;2024-03-17T09:41:01;101238.56;;;13.19;42.94
85782;BME280;76219;50.128;8.728;2024-03-17T09:43:31;101232.28;;;13.97;41.39
85782;BME280;76219;50.128;8.728;2024-03-17T09:46:04;101231.94;;;15.48;38.08
85782;BME280;76219;50.128;8.728;2024-03-17T09:48:32;101228.47;;;15.59;38.40
85782;BME280;76219;50.128;8.728;2024-03-17T09:51:01;101223.09;;;14.27;41.11
85782;BME280;76219;50.128;8.728;2024-03-17T09:53:30;101232.97;;;13.36;42.49
85782;BME280;76219;50.128;8.728;2024-03-17T09:55:59;101229.03;;;14.43;40.69
85782;BME280;76219;50.128;8.728;2024-03-17T09:58:29;101224.41;;;13.04;42.75
85782;BME280;76219;50.128;8.728;2024-03-17T10:00:57;101231.78;;;13.27;43.22
85782;BME280;76219;50.128;8.728;2024-03-17T10:03:44;101211.84;;;14.35;41.16
85782;BME280;76219;50.128;8.728;2024-03-17T10:06:13;101201.72;;;13.89;41.79
85782;BME280;76219;50.128;8.728;2024-03-17T10:08:42;101201.31;;;13.82;41.91
85782;BME280;76219;50.128;8.728;2024-03-17T10:11:10;101200.41;;;15.06;39.03
85782;BME280;76219;50.128;8.728;2024-03-17T10:13:39;101193.31;;;15.05;39.02
85782;BME280;76219;50.128;8.728;2024-03-17T10:16:22;101191.63;;;14.56;40.83
85782;BME280;76219;50.128;8.728;2024-03-17T10:19:07;101187.63;;;16.36;37.50
85782;BME280;76219;50.128;8.728;2024-03-17T10:21:38;101189.56;;;13.97;41.70
85782;BME280;76219;50.128;8.728;2024-03-17T10:24:08;101201.53;;;13.79;42.27
85782;BME280;76219;50.128;8.728;2024-03-17T10:26:41;101202.09;;;14.59;40.25
85782;BME280;76219;50.128;8.728;2024-03-17T10:29:21;101202.97;;;14.34;40.41
85782;BME280;76219;50.128;8.728;2024-03-17T10:31:53;101210.34;;;14.80;39.52
85782;BME280;76219;50.128;8.728;2024-03-17T10:34:23;101201.94;;;14.11;41.73
85782;BME280;76219;50.128;8.728;2024-03-17T10:37:06;101198.31;;;13.74;41.76
85782;BME280;76219;50.128;8.728;2024-03-17T10:39:37;101197.84;;;13.29;43.10
85782;BME280;76219;50.128;8.728;2024-03-17T10:42:08;101198.06;;;13.26;43.33
85782;BME280;76219;50.128;8.728;2024-03-17T10:44:37;101184.00;;;13.10;43.93
85782;BME280;76219;50.128;8.728;2024-03-17T10:47:05;101187.84;;;13.58;43.34
85782;BME280;76219;50.128;8.728;2024-03-17T10:49:38;101178.09;;;15.18;40.70
85782;BME280;76219;50.128;8.728;2024-03-17T10:52:06;101178.97;;;16.32;37.98
85782;BME280;76219;50.128;8.728;2024-03-17T10:54:36;101193.00;;;15.91;38.87
85782;BME280;76219;50.128;8.728;2024-03-17T10:57:17;101182.97;;;15.00;39.14
85782;BME280;76219;50.128;8.728;2024-03-17T10:59:48;101181.34;;;13.75;42.73
85782;BME280;76219;50.128;8.728;2024-03-17T11:02:21;101173.38;;;14.98;39.39
85782;BME280;76219;50.128;8.728;2024-03-17T11:04:54;101174.09;;;15.70;38.85
85782;BME280;76219;50.128;8.728;2024-03-17T11:07:23;101180.38;;;14.87;41.30
85782;BME280;76219;50.128;8.728;2024-03-17T11:09:52;101188.75;;;15.42;40.22
85782;BME280;76219;50.128;8.728;2024-03-17T11:12:41;101179.47;;;15.92;38.64
85782;BME280;76219;50.128;8.728;2024-03-17T11:18:43;101174.09;;;16.37;39.01
85782;BME280;76219;50.128;8.728;2024-03-17T11:21:22;101183.44;;;16.65;36.99
85782;BME280;76219;50.128;8.728;2024-03-17T11:23:55;101183.19;;;15.21;39.59
85782;BME280;76219;50.128;8.728;2024-03-17T11:26:30;101183.16;;;13.75;43.34
85782;BME280;76219;50.128;8.728;2024-03-17T11:28:59;101174.63;;;13.82;43.78
85782;BME280;76219;50.128;8.728;2024-03-17T11:31:33;101178.00;;;15.77;40.18
85782;BME280;76219;50.128;8.728;2024-03-17T11:34:04;101174.47;;;14.09;42.73
85782;BME280;76219;50.128;8.728;2024-03-17T11:36:37;101169.44;;;15.61;41.24
85782;BME280;76219;50.128;8.728;2024-03-17T11:39:06;101161.75;;;14.86;42.11
85782;BME280;76219;50.128;8.728;2024-03-17T11:41:36;101173.69;;;14.93;41.78
85782;BME280;76219;50.128;8.728;2024-03-17T11:44:16;101175.22;;;13.08;45.83
85782;BME280;76219;50.128;8.728;2024-03-17T11:47:02;101162.63;;;14.00;44.47
85782;BME280;76219;50.128;8.728;2024-03-17T11:49:31;101171.91;;;15.29;41.72
85782;BME280;76219;50.128;8.728;2024-03-17T11:52:03;101168.75;;;14.52;41.84
85782;BME280;76219;50.128;8.728;2024-03-17T11:54:32;101177.47;;;14.67;41.58
85782;BME280;76219;50.128;8.728;2024-03-17T11:57:04;101167.34;;;14.46;43.13
85782;BME280;76219;50.128;8.728;2024-03-17T11:59:33;101167.09;;;14.25;43.70
85782;BME280;76219;50.128;8.728;2024-03-17T12:02:00;101165.47;;;15.78;41.69
85782;BME280;76219;50.128;8.728;2024-03-17T12:04:30;101153.78;;;16.67;38.29
85782;BME280;76219;50.128;8.728;2024-03-17T12:06:59;101154.88;;;15.98;40.38
85782;BME280;76219;50.128;8.728;2024-03-17T12:09:29;101155.97;;;17.37;36.98
85782;BME280;76219;50.128;8.728;2024-03-17T12:11:59;101153.06;;;15.99;39.30
85782;BME280;76219;50.128;8.728;2024-03-17T12:14:27;101152.72;;;15.57;41.34
85782;BME280;76219;50.128;8.728;2024-03-17T12:16:55;101140.50;;;16.22;39.70
85782;BME280;76219;50.128;8.728;2024-03-17T12:19:23;101145.69;;;15.56;40.26
85782;BME280;76219;50.128;8.728;2024-03-17T12:21:53;101148.09;;;14.78;42.22
85782;BME280;76219;50.128;8.728;2024-03-17T12:24:23;101142.91;;;15.23;41.99
85782;BME280;76219;50.128;8.728;2024-03-17T12:26:53;101145.38;;;15.37;41.03
85782;BME280;76219;50.128;8.728;2024-03-17T12:29:24;101133.53;;;14.82;42.65
85782;BME280;76219;50.128;8.728;2024-03-17T12:31:54;101141.72;;;14.92;42.83
85782;BME280;76219;50.128;8.728;2024-03-17T12:34:24;101134.94;;;14.99;42.10
85782;BME280;76219;50.128;8.728;2024-03-17T12:36:54;101134.56;;;15.03;41.91
85782;BME280;76219;50.128;8.728;2024-03-17T12:39:22;101125.97;;;15.11;42.13
85782;BME280;76219;50.128;8.728;2024-03-17T12:42:07;101129.16;;;15.96;39.98
85782;BME280;76219;50.128;8.728;2024-03-17T12:44:36;101130.50;;;14.86;42.04
85782;BME280;76219;50.128;8.728;2024-03-17T12:47:04;101112.25;;;15.27;42.71
85782;BME280;76219;50.128;8.728;2024-03-17T12:49:33;101113.47;;;14.40;43.07
85782;BME280;76219;50.128;8.728;2024-03-17T12:52:02;101110.53;;;15.14;42.65
85782;BME280;76219;50.128;8.728;2024-03-17T12:54:30;101106.72;;;15.41;42.94
85782;BME280;76219;50.128;8.728;2024-03-17T12:57:08;101095.13;;;15.29;43.15
85782;BME280;76219;50.128;8.728;2024-03-17T12:59:53;101098.13;;;15.13;41.79
85782;BME280;76219;50.128;8.728;2024-03-17T13:02:41;101099.66;;;15.05;42.56
85782;BME280;76219;50.128;8.728;2024-03-17T13:05:17;101094.00;;;17.29;38.21
85782;BME280;76219;50.128;8.728;2024-03-17T13:07:45;101103.69;;;16.67;39.20
85782;BME280;76219;50.128;8.728;2024-03-17T13:10:17;101094.63;;;17.93;36.88
85782;BME280;76219;50.128;8.728;2024-03-17T13:12:46;101091.50;;;15.41;40.83